sensor_id;sensor_type;location;lat;lon;timestamp;P1;durP1;ratioP1;P2;durP2;ratioP2
4738;SDS011;2383;48.632;10.156;2022-12-18T00:00:43;70.83;;;28.57;;
4738;SDS011;2383;48.632;10.156;2022-12-18T00:04:47;63.00;;;28.30;;
4738;SDS011;2383;48.632;10.156;2022-12-18T00:08:49;58.90;;;26.90;;
4738;SDS011;2383;48.632;10.156;2022-12-18T00:12:52;71.33;;;31.27;;
4738;SDS011;2383;48.632;10.156;2022-12-18T00:16:54;68.10;;;28.93;;
4738;SDS011;2383;48.632;10.156;2022-12-18T00:20:58;85.37;;;34.87;;
4738;SDS011;2383;48.632;10.156;2022-12-18T00:25:01;76.00;;;31.47;;
4738;SDS011;2383;48.632;10.156;2022-12-18T00:29:07;95.23;;;37.60;;
4738;SDS011;2383;48.632;10.156;2022-12-18T00:33:14;82.23;;;33.00;;
4738;SDS011;2383;48.632;10.156;2022-12-18T00:37:16;73.93;;;31.10;;
4738;SDS011;2383;48.632;10.156;2022-12-18T00:41:25;92.30;;;37.57;;
4738;SDS011;2383;48.632;10.156;2022-12-18T00:45:45;81.23;;;28.13;;
4738;SDS011;2383;48.632;10.156;2022-12-18T00:49:47;74.53;;;30.23;;
4738;SDS011;2383;48.632;10.156;2022-12-18T00:53:49;63.53;;;28.87;;
4738;SDS011;2383;48.632;10.156;2022-12-18T00:57:51;56.50;;;25.60;;
4738;SDS011;2383;48.632;10.156;2022-12-18T01:01:53;60.27;;;28.07;;
4738;SDS011;2383;48.632;10.156;2022-12-18T01:05:55;70.97;;;28.90;;
4738;SDS011;2383;48.632;10.156;2022-12-18T01:09:57;67.63;;;30.10;;
4738;SDS011;2383;48.632;10.156;2022-12-18T01:14:00;92.00;;;32.13;;
4738;SDS011;2383;48.632;10.156;2022-12-18T01:18:02;64.87;;;27.70;;
4738;SDS011;2383;48.632;10.156;2022-12-18T01:22:06;57.00;;;23.73;;
4738;SDS011;2383;48.632;10.156;2022-12-18T01:26:09;52.57;;;24.03;;
4738;SDS011;2383;48.632;10.156;2022-12-18T01:30:14;54.27;;;24.10;;
4738;SDS011;2383;48.632;10.156;2022-12-18T01:34:16;65.77;;;26.73;;
4738;SDS011;2383;48.632;10.156;2022-12-18T01:38:17;58.17;;;25.17;;
4738;SDS011;2383;48.632;10.156;2022-12-18T01:42:19;60.97;;;26.70;;
4738;SDS011;2383;48.632;10.156;2022-12-18T01:46:22;63.03;;;26.40;;
4738;SDS011;2383;48.632;10.156;2022-12-18T01:54:37;73.43;;;29.13;;
4738;SDS011;2383;48.632;10.156;2022-12-18T01:58:45;72.77;;;28.30;;
4738;SDS011;2383;48.632;10.156;2022-12-18T02:03:14;70.60;;;26.83;;
4738;SDS011;2383;48.632;10.156;2022-12-18T02:07:32;63.10;;;26.90;;
4738;SDS011;2383;48.632;10.156;2022-12-18T02:20:35;65.50;;;26.17;;
4738;SDS011;2383;48.632;10.156;2022-12-18T02:29:47;66.10;;;25.80;;
4738;SDS011;2383;48.632;10.156;2022-12-18T02:33:33;94.83;;;27.33;;
4738;SDS011;2383;48.632;10.156;2022-12-18T02:37:37;78.17;;;27.10;;
4738;SDS011;2383;48.632;10.156;2022-12-18T02:41:41;65.00;;;27.30;;
4738;SDS011;2383;48.632;10.156;2022-12-18T02:45:51;62.87;;;25.80;;
4738;SDS011;2383;48.632;10.156;2022-12-18T02:58:46;63.77;;;25.33;;
4738;SDS011;2383;48.632;10.156;2022-12-18T03:03:18;66.67;;;24.60;;
4738;SDS011;2383;48.632;10.156;2022-12-18T03:07:37;60.20;;;25.67;;
4738;SDS011;2383;48.632;10.156;2022-12-18T03:11:46;95.10;;;27.70;;
4738;SDS011;2383;48.632;10.156;2022-12-18T03:16:15;61.70;;;26.03;;
4738;SDS011;2383;48.632;10.156;2022-12-18T03:20:23;78.53;;;26.33;;
4738;SDS011;2383;48.632;10.156;2022-12-18T03:24:29;74.13;;;26.80;;
4738;SDS011;2383;48.632;10.156;2022-12-18T03:28:35;83.67;;;26.77;;
4738;SDS011;2383;48.632;10.156;2022-12-18T03:37:01;80.83;;;26.37;;
4738;SDS011;2383;48.632;10.156;2022-12-18T03:45:37;72.93;;;26.00;;
4738;SDS011;2383;48.632;10.156;2022-12-18T03:49:50;80.90;;;28.73;;
4738;SDS011;2383;48.632;10.156;2022-12-18T03:54:06;73.40;;;27.73;;
4738;SDS011;2383;48.632;10.156;2022-12-18T03:58:15;71.20;;;26.40;;
4738;SDS011;2383;48.632;10.156;2022-12-18T04:02:30;82.13;;;28.17;;
4738;SDS011;2383;48.632;10.156;2022-12-18T04:06:36;66.30;;;26.60;;
4738;SDS011;2383;48.632;10.156;2022-12-18T04:10:41;78.73;;;27.70;;
4738;SDS011;2383;48.632;10.156;2022-12-18T04:14:43;70.40;;;27.83;;
4738;SDS011;2383;48.632;10.156;2022-12-18T04:18:47;74.93;;;25.83;;
4738;SDS011;2383;48.632;10.156;2022-12-18T04:22:49;69.53;;;27.00;;
4738;SDS011;2383;48.632;10.156;2022-12-18T04:26:52;78.97;;;29.47;;
4738;SDS011;2383;48.632;10.156;2022-12-18T04:31:01;99.33;;;27.70;;
4738;SDS011;2383;48.632;10.156;2022-12-18T04:35:03;83.63;;;27.83;;
4738;SDS011;2383;48.632;10.156;2022-12-18T04:39:08;70.63;;;26.53;;
4738;SDS011;2383;48.632;10.156;2022-12-18T04:43:10;81.97;;;28.27;;
4738;SDS011;2383;48.632;10.156;2022-12-18T04:47:13;72.87;;;28.00;;
4738;SDS011;2383;48.632;10.156;2022-12-18T04:51:15;81.83;;;28.37;;
4738;SDS011;2383;48.632;10.156;2022-12-18T04:55:16;75.57;;;27.77;;
4738;SDS011;2383;48.632;10.156;2022-12-18T04:59:18;79.90;;;28.20;;
4738;SDS011;2383;48.632;10.156;2022-12-18T05:03:20;85.00;;;29.13;;
4738;SDS011;2383;48.632;10.156;2022-12-18T05:07:22;77.23;;;29.37;;
4738;SDS011;2383;48.632;10.156;2022-12-18T05:11:24;85.30;;;30.90;;
4738;SDS011;2383;48.632;10.156;2022-12-18T05:15:26;80.63;;;30.33;;
4738;SDS011;2383;48.632;10.156;2022-12-18T05:19:32;73.10;;;29.13;;
4738;SDS011;2383;48.632;10.156;2022-12-18T05:23:33;65.23;;;25.83;;
4738;SDS011;2383;48.632;10.156;2022-12-18T05:27:36;74.00;;;28.37;;
4738;SDS011;2383;48.632;10.156;2022-12-18T05:31:38;61.00;;;26.40;;
4738;SDS011;2383;48.632;10.156;2022-12-18T05:35:40;64.33;;;26.33;;
4738;SDS011;2383;48.632;10.156;2022-12-18T05:39:42;74.30;;;27.50;;
4738;SDS011;2383;48.632;10.156;2022-12-18T05:43:45;70.40;;;29.07;;
4738;SDS011;2383;48.632;10.156;2022-12-18T05:47:47;77.13;;;30.00;;
4738;SDS011;2383;48.632;10.156;2022-12-18T05:51:48;77.00;;;28.60;;
4738;SDS011;2383;48.632;10.156;2022-12-18T05:55:50;73.17;;;29.13;;
4738;SDS011;2383;48.632;10.156;2022-12-18T05:59:52;68.93;;;27.13;;
4738;SDS011;2383;48.632;10.156;2022-12-18T06:03:55;67.77;;;28.17;;
4738;SDS011;2383;48.632;10.156;2022-12-18T06:07:57;68.40;;;28.07;;
4738;SDS011;2383;48.632;10.156;2022-12-18T06:11:58;60.77;;;25.77;;
4738;SDS011;2383;48.632;10.156;2022-12-18T06:16:04;58.20;;;24.23;;
4738;SDS011;2383;48.632;10.156;2022-12-18T06:20:06;59.80;;;23.37;;
4738;SDS011;2383;48.632;10.156;2022-12-18T06:24:08;57.70;;;23.10;;
4738;SDS011;2383;48.632;10.156;2022-12-18T06:28:11;67.67;;;23.67;;
4738;SDS011;2383;48.632;10.156;2022-12-18T06:32:13;64.70;;;24.43;;
4738;SDS011;2383;48.632;10.156;2022-12-18T06:36:15;50.43;;;21.67;;
4738;SDS011;2383;48.632;10.156;2022-12-18T06:40:17;55.50;;;23.47;;
4738;SDS011;2383;48.632;10.156;2022-12-18T06:44:19;56.57;;;22.93;;
4738;SDS011;2383;48.632;10.156;2022-12-18T06:48:21;56.57;;;21.97;;
4738;SDS011;2383;48.632;10.156;2022-12-18T06:52:23;54.67;;;23.87;;
4738;SDS011;2383;48.632;10.156;2022-12-18T06:56:25;53.83;;;21.83;;
4738;SDS011;2383;48.632;10.156;2022-12-18T07:00:26;58.30;;;24.47;;
4738;SDS011;2383;48.632;10.156;2022-12-18T07:04:29;57.80;;;23.30;;
4738;SDS011;2383;48.632;10.156;2022-12-18T07:08:31;59.87;;;23.40;;
4738;SDS011;2383;48.632;10.156;2022-12-18T07:12:34;52.90;;;22.23;;
4738;SDS011;2383;48.632;10.156;2022-12-18T07:16:36;54.67;;;22.93;;
4738;SDS011;2383;48.632;10.156;2022-12-18T07:20:37;52.30;;;21.90;;
4738;SDS011;2383;48.632;10.156;2022-12-18T07:24:39;48.33;;;21.07;;
4738;SDS011;2383;48.632;10.156;2022-12-18T07:28:41;51.67;;;22.10;;
4738;SDS011;2383;48.632;10.156;2022-12-18T07:32:43;53.20;;;22.10;;
4738;SDS011;2383;48.632;10.156;2022-12-18T07:36:45;49.27;;;20.80;;
4738;SDS011;2383;48.632;10.156;2022-12-18T07:40:47;53.43;;;22.90;;
4738;SDS011;2383;48.632;10.156;2022-12-18T07:44:48;51.77;;;23.33;;
4738;SDS011;2383;48.632;10.156;2022-12-18T07:48:50;49.67;;;21.57;;
4738;SDS011;2383;48.632;10.156;2022-12-18T07:52:52;51.37;;;23.33;;
4738;SDS011;2383;48.632;10.156;2022-12-18T07:56:54;51.20;;;20.90;;
4738;SDS011;2383;48.632;10.156;2022-12-18T08:01:03;54.40;;;22.97;;
4738;SDS011;2383;48.632;10.156;2022-12-18T08:05:06;50.13;;;21.17;;
4738;SDS011;2383;48.632;10.156;2022-12-18T08:09:09;51.97;;;21.23;;
4738;SDS011;2383;48.632;10.156;2022-12-18T08:13:11;56.20;;;22.70;;
4738;SDS011;2383;48.632;10.156;2022-12-18T08:17:13;52.37;;;21.80;;
4738;SDS011;2383;48.632;10.156;2022-12-18T08:21:16;48.07;;;21.33;;
4738;SDS011;2383;48.632;10.156;2022-12-18T08:25:18;49.87;;;20.27;;
4738;SDS011;2383;48.632;10.156;2022-12-18T08:29:19;47.37;;;21.77;;
4738;SDS011;2383;48.632;10.156;2022-12-18T08:33:22;45.53;;;20.23;;
4738;SDS011;2383;48.632;10.156;2022-12-18T08:37:24;47.27;;;21.80;;
4738;SDS011;2383;48.632;10.156;2022-12-18T08:41:26;51.80;;;26.20;;
4738;SDS011;2383;48.632;10.156;2022-12-18T08:45:28;51.97;;;23.57;;
4738;SDS011;2383;48.632;10.156;2022-12-18T08:49:30;52.17;;;22.83;;
4738;SDS011;2383;48.632;10.156;2022-12-18T08:53:31;53.03;;;24.00;;
4738;SDS011;2383;48.632;10.156;2022-12-18T08:57:36;48.27;;;22.87;;
4738;SDS011;2383;48.632;10.156;2022-12-18T09:01:38;51.20;;;24.17;;
4738;SDS011;2383;48.632;10.156;2022-12-18T09:05:40;51.63;;;23.67;;
4738;SDS011;2383;48.632;10.156;2022-12-18T09:09:42;51.20;;;23.37;;
4738;SDS011;2383;48.632;10.156;2022-12-18T09:13:44;53.53;;;24.30;;
4738;SDS011;2383;48.632;10.156;2022-12-18T09:17:45;47.43;;;22.43;;
4738;SDS011;2383;48.632;10.156;2022-12-18T09:21:47;49.73;;;22.60;;
4738;SDS011;2383;48.632;10.156;2022-12-18T09:25:49;49.40;;;22.50;;
4738;SDS011;2383;48.632;10.156;2022-12-18T09:29:51;49.93;;;22.90;;
4738;SDS011;2383;48.632;10.156;2022-12-18T09:33:54;48.60;;;21.47;;
4738;SDS011;2383;48.632;10.156;2022-12-18T09:37:57;49.20;;;23.53;;
4738;SDS011;2383;48.632;10.156;2022-12-18T09:41:59;44.57;;;20.80;;
4738;SDS011;2383;48.632;10.156;2022-12-18T09:46:02;47.30;;;20.67;;
4738;SDS011;2383;48.632;10.156;2022-12-18T09:50:17;52.77;;;22.50;;
4738;SDS011;2383;48.632;10.156;2022-12-18T09:54:34;46.43;;;21.87;;
4738;SDS011;2383;48.632;10.156;2022-12-18T09:58:48;50.27;;;22.87;;
4738;SDS011;2383;48.632;10.156;2022-12-18T10:03:01;49.23;;;22.27;;
4738;SDS011;2383;48.632;10.156;2022-12-18T10:07:23;53.37;;;21.60;;
4738;SDS011;2383;48.632;10.156;2022-12-18T10:16:03;47.53;;;21.47;;
4738;SDS011;2383;48.632;10.156;2022-12-18T10:28:49;55.93;;;24.80;;
4738;SDS011;2383;48.632;10.156;2022-12-18T10:32:53;54.00;;;24.00;;
4738;SDS011;2383;48.632;10.156;2022-12-18T10:36:55;56.93;;;23.60;;
4738;SDS011;2383;48.632;10.156;2022-12-18T10:45:13;53.33;;;22.77;;
4738;SDS011;2383;48.632;10.156;2022-12-18T10:49:25;49.50;;;22.17;;
4738;SDS011;2383;48.632;10.156;2022-12-18T10:53:28;53.63;;;23.47;;
4738;SDS011;2383;48.632;10.156;2022-12-18T10:57:36;60.63;;;23.57;;
4738;SDS011;2383;48.632;10.156;2022-12-18T11:01:58;64.23;;;25.20;;
4738;SDS011;2383;48.632;10.156;2022-12-18T11:06:01;57.13;;;25.33;;
4738;SDS011;2383;48.632;10.156;2022-12-18T11:10:17;61.63;;;24.60;;
4738;SDS011;2383;48.632;10.156;2022-12-18T11:14:31;55.63;;;23.67;;
4738;SDS011;2383;48.632;10.156;2022-12-18T11:18:35;56.50;;;23.30;;
4738;SDS011;2383;48.632;10.156;2022-12-18T11:22:37;55.67;;;23.77;;
4738;SDS011;2383;48.632;10.156;2022-12-18T11:26:41;51.97;;;24.97;;
4738;SDS011;2383;48.632;10.156;2022-12-18T11:30:44;53.50;;;24.87;;
4738;SDS011;2383;48.632;10.156;2022-12-18T11:34:46;58.63;;;24.80;;
4738;SDS011;2383;48.632;10.156;2022-12-18T11:38:59;57.63;;;25.43;;
4738;SDS011;2383;48.632;10.156;2022-12-18T11:43:15;51.57;;;23.17;;
4738;SDS011;2383;48.632;10.156;2022-12-18T12:00:27;64.20;;;28.03;;
4738;SDS011;2383;48.632;10.156;2022-12-18T12:13:20;60.13;;;26.40;;
4738;SDS011;2383;48.632;10.156;2022-12-18T12:17:53;60.57;;;26.57;;
4738;SDS011;2383;48.632;10.156;2022-12-18T12:35:26;52.47;;;23.50;;
4738;SDS011;2383;48.632;10.156;2022-12-18T12:39:37;62.40;;;26.10;;
4738;SDS011;2383;48.632;10.156;2022-12-18T12:43:45;63.57;;;30.10;;
4738;SDS011;2383;48.632;10.156;2022-12-18T12:47:52;57.77;;;27.70;;
4738;SDS011;2383;48.632;10.156;2022-12-18T12:52:00;57.03;;;27.40;;
4738;SDS011;2383;48.632;10.156;2022-12-18T12:56:38;56.53;;;27.90;;
4738;SDS011;2383;48.632;10.156;2022-12-18T13:01:03;68.10;;;29.97;;
4738;SDS011;2383;48.632;10.156;2022-12-18T13:14:31;62.73;;;27.33;;
4738;SDS011;2383;48.632;10.156;2022-12-18T13:18:38;60.30;;;27.73;;
4738;SDS011;2383;48.632;10.156;2022-12-18T13:22:51;55.33;;;26.70;;
4738;SDS011;2383;48.632;10.156;2022-12-18T13:26:53;62.53;;;27.30;;
4738;SDS011;2383;48.632;10.156;2022-12-18T13:30:56;59.87;;;27.63;;
4738;SDS011;2383;48.632;10.156;2022-12-18T13:43:34;72.47;;;29.80;;
4738;SDS011;2383;48.632;10.156;2022-12-18T13:47:44;58.47;;;25.30;;
4738;SDS011;2383;48.632;10.156;2022-12-18T13:51:47;53.97;;;25.10;;
4738;SDS011;2383;48.632;10.156;2022-12-18T13:55:52;63.90;;;27.63;;
4738;SDS011;2383;48.632;10.156;2022-12-18T13:59:55;53.53;;;25.87;;
4738;SDS011;2383;48.632;10.156;2022-12-18T14:04:11;56.37;;;25.70;;
4738;SDS011;2383;48.632;10.156;2022-12-18T14:08:20;57.40;;;26.23;;
4738;SDS011;2383;48.632;10.156;2022-12-18T14:12:24;60.10;;;26.77;;
4738;SDS011;2383;48.632;10.156;2022-12-18T14:16:48;61.83;;;26.57;;
4738;SDS011;2383;48.632;10.156;2022-12-18T14:20:51;58.07;;;25.43;;
4738;SDS011;2383;48.632;10.156;2022-12-18T14:25:05;63.00;;;28.60;;
4738;SDS011;2383;48.632;10.156;2022-12-18T14:33:22;61.53;;;26.63;;
4738;SDS011;2383;48.632;10.156;2022-12-18T14:37:27;77.67;;;33.60;;
4738;SDS011;2383;48.632;10.156;2022-12-18T14:41:29;62.87;;;33.30;;
4738;SDS011;2383;48.632;10.156;2022-12-18T14:45:37;58.60;;;24.87;;
4738;SDS011;2383;48.632;10.156;2022-12-18T14:49:44;54.10;;;24.77;;
4738;SDS011;2383;48.632;10.156;2022-12-18T14:53:56;57.07;;;23.20;;
4738;SDS011;2383;48.632;10.156;2022-12-18T14:58:01;59.53;;;25.27;;
4738;SDS011;2383;48.632;10.156;2022-12-18T15:06:25;51.97;;;23.37;;
4738;SDS011;2383;48.632;10.156;2022-12-18T15:10:33;53.40;;;26.30;;
4738;SDS011;2383;48.632;10.156;2022-12-18T15:14:40;56.27;;;24.10;;
4738;SDS011;2383;48.632;10.156;2022-12-18T15:18:42;48.83;;;22.00;;
4738;SDS011;2383;48.632;10.156;2022-12-18T15:22:46;54.13;;;24.07;;
4738;SDS011;2383;48.632;10.156;2022-12-18T15:26:48;50.57;;;25.37;;
4738;SDS011;2383;48.632;10.156;2022-12-18T15:35:13;49.77;;;22.97;;
4738;SDS011;2383;48.632;10.156;2022-12-18T15:39:23;58.10;;;26.27;;
4738;SDS011;2383;48.632;10.156;2022-12-18T15:43:26;59.47;;;25.53;;
4738;SDS011;2383;48.632;10.156;2022-12-18T15:47:38;59.70;;;24.10;;
4738;SDS011;2383;48.632;10.156;2022-12-18T15:51:40;55.20;;;25.70;;
4738;SDS011;2383;48.632;10.156;2022-12-18T15:55:42;52.27;;;24.27;;
4738;SDS011;2383;48.632;10.156;2022-12-18T16:00:02;63.83;;;32.77;;
4738;SDS011;2383;48.632;10.156;2022-12-18T16:04:05;63.33;;;28.27;;
4738;SDS011;2383;48.632;10.156;2022-12-18T16:08:07;54.80;;;26.87;;
4738;SDS011;2383;48.632;10.156;2022-12-18T16:12:13;52.00;;;24.47;;
4738;SDS011;2383;48.632;10.156;2022-12-18T16:16:22;47.83;;;23.57;;
4738;SDS011;2383;48.632;10.156;2022-12-18T16:20:24;44.27;;;23.80;;
4738;SDS011;2383;48.632;10.156;2022-12-18T16:24:27;54.37;;;24.70;;
4738;SDS011;2383;48.632;10.156;2022-12-18T16:28:30;53.17;;;23.87;;
4738;SDS011;2383;48.632;10.156;2022-12-18T16:32:32;52.83;;;22.13;;
4738;SDS011;2383;48.632;10.156;2022-12-18T16:36:34;51.27;;;24.20;;
4738;SDS011;2383;48.632;10.156;2022-12-18T16:40:36;53.23;;;23.73;;
4738;SDS011;2383;48.632;10.156;2022-12-18T16:44:59;51.60;;;22.60;;
4738;SDS011;2383;48.632;10.156;2022-12-18T16:49:01;52.80;;;23.30;;
4738;SDS011;2383;48.632;10.156;2022-12-18T16:53:02;56.37;;;24.73;;
4738;SDS011;2383;48.632;10.156;2022-12-18T16:57:04;86.87;;;38.67;;
4738;SDS011;2383;48.632;10.156;2022-12-18T17:01:07;51.07;;;24.97;;
4738;SDS011;2383;48.632;10.156;2022-12-18T17:05:11;51.67;;;23.27;;
4738;SDS011;2383;48.632;10.156;2022-12-18T17:09:14;57.37;;;24.60;;
4738;SDS011;2383;48.632;10.156;2022-12-18T17:13:17;56.37;;;23.87;;
4738;SDS011;2383;48.632;10.156;2022-12-18T17:17:25;54.67;;;24.37;;
4738;SDS011;2383;48.632;10.156;2022-12-18T17:21:27;54.13;;;25.17;;
4738;SDS011;2383;48.632;10.156;2022-12-18T17:25:29;48.23;;;22.63;;
4738;SDS011;2383;48.632;10.156;2022-12-18T17:29:31;52.53;;;25.77;;
4738;SDS011;2383;48.632;10.156;2022-12-18T17:33:33;50.30;;;22.57;;
4738;SDS011;2383;48.632;10.156;2022-12-18T17:37:35;69.23;;;29.97;;
4738;SDS011;2383;48.632;10.156;2022-12-18T17:41:37;56.90;;;27.23;;
4738;SDS011;2383;48.632;10.156;2022-12-18T17:45:39;51.97;;;23.67;;
4738;SDS011;2383;48.632;10.156;2022-12-18T17:49:41;54.30;;;22.53;;
4738;SDS011;2383;48.632;10.156;2022-12-18T17:53:43;60.80;;;25.70;;
4738;SDS011;2383;48.632;10.156;2022-12-18T17:57:45;51.17;;;23.03;;
4738;SDS011;2383;48.632;10.156;2022-12-18T18:01:47;49.27;;;22.37;;
4738;SDS011;2383;48.632;10.156;2022-12-18T18:05:56;47.83;;;22.00;;
4738;SDS011;2383;48.632;10.156;2022-12-18T18:09:58;45.20;;;22.17;;
4738;SDS011;2383;48.632;10.156;2022-12-18T18:14:00;54.67;;;24.03;;
4738;SDS011;2383;48.632;10.156;2022-12-18T18:18:05;58.47;;;24.13;;
4738;SDS011;2383;48.632;10.156;2022-12-18T18:22:07;52.87;;;23.13;;
4738;SDS011;2383;48.632;10.156;2022-12-18T18:26:08;55.63;;;23.87;;
4738;SDS011;2383;48.632;10.156;2022-12-18T18:30:10;48.57;;;22.90;;
4738;SDS011;2383;48.632;10.156;2022-12-18T18:34:14;51.93;;;23.10;;
4738;SDS011;2383;48.632;10.156;2022-12-18T18:38:23;77.27;;;41.97;;
4738;SDS011;2383;48.632;10.156;2022-12-18T18:42:25;59.33;;;28.60;;
4738;SDS011;2383;48.632;10.156;2022-12-18T18:46:27;64.83;;;29.60;;
4738;SDS011;2383;48.632;10.156;2022-12-18T18:50:29;60.10;;;29.37;;
4738;SDS011;2383;48.632;10.156;2022-12-18T18:54:31;70.50;;;29.40;;
4738;SDS011;2383;48.632;10.156;2022-12-18T18:58:33;57.30;;;25.50;;
4738;SDS011;2383;48.632;10.156;2022-12-18T19:02:35;57.60;;;24.93;;
4738;SDS011;2383;48.632;10.156;2022-12-18T19:06:39;57.07;;;24.90;;
4738;SDS011;2383;48.632;10.156;2022-12-18T19:10:43;59.07;;;26.40;;
4738;SDS011;2383;48.632;10.156;2022-12-18T19:14:45;59.67;;;25.90;;
4738;SDS011;2383;48.632;10.156;2022-12-18T19:18:47;65.63;;;27.20;;
4738;SDS011;2383;48.632;10.156;2022-12-18T19:22:51;54.13;;;24.77;;
4738;SDS011;2383;48.632;10.156;2022-12-18T19:26:56;62.77;;;25.73;;
4738;SDS011;2383;48.632;10.156;2022-12-18T19:30:59;66.57;;;25.50;;
4738;SDS011;2383;48.632;10.156;2022-12-18T19:35:03;62.10;;;24.60;;
4738;SDS011;2383;48.632;10.156;2022-12-18T19:39:09;60.33;;;25.60;;
4738;SDS011;2383;48.632;10.156;2022-12-18T19:43:13;53.83;;;23.27;;
4738;SDS011;2383;48.632;10.156;2022-12-18T19:47:16;60.73;;;25.60;;
4738;SDS011;2383;48.632;10.156;2022-12-18T19:51:19;55.97;;;25.40;;
4738;SDS011;2383;48.632;10.156;2022-12-18T19:55:23;63.00;;;24.80;;
4738;SDS011;2383;48.632;10.156;2022-12-18T19:59:25;58.37;;;26.10;;
4738;SDS011;2383;48.632;10.156;2022-12-18T20:03:27;63.10;;;27.23;;
4738;SDS011;2383;48.632;10.156;2022-12-18T20:07:33;58.10;;;25.47;;
4738;SDS011;2383;48.632;10.156;2022-12-18T20:11:34;65.43;;;26.93;;
4738;SDS011;2383;48.632;10.156;2022-12-18T20:15:42;58.30;;;25.47;;
4738;SDS011;2383;48.632;10.156;2022-12-18T20:19:45;63.10;;;26.70;;
4738;SDS011;2383;48.632;10.156;2022-12-18T20:23:47;62.03;;;26.33;;
4738;SDS011;2383;48.632;10.156;2022-12-18T20:27:49;61.90;;;27.63;;
4738;SDS011;2383;48.632;10.156;2022-12-18T20:31:51;83.27;;;33.67;;
4738;SDS011;2383;48.632;10.156;2022-12-18T20:35:58;105.20;;;37.20;;
4738;SDS011;2383;48.632;10.156;2022-12-18T20:40:06;109.93;;;38.10;;
4738;SDS011;2383;48.632;10.156;2022-12-18T20:44:13;90.50;;;33.47;;
4738;SDS011;2383;48.632;10.156;2022-12-18T20:48:24;67.37;;;28.13;;
4738;SDS011;2383;48.632;10.156;2022-12-18T20:52:27;73.57;;;30.30;;
4738;SDS011;2383;48.632;10.156;2022-12-18T20:56:28;88.13;;;34.43;;
4738;SDS011;2383;48.632;10.156;2022-12-18T21:00:33;83.67;;;34.30;;
4738;SDS011;2383;48.632;10.156;2022-12-18T21:04:35;88.40;;;34.13;;
4738;SDS011;2383;48.632;10.156;2022-12-18T21:08:37;77.70;;;31.40;;
4738;SDS011;2383;48.632;10.156;2022-12-18T21:12:42;75.97;;;29.60;;
4738;SDS011;2383;48.632;10.156;2022-12-18T21:17:04;74.27;;;30.13;;
4738;SDS011;2383;48.632;10.156;2022-12-18T21:21:06;77.47;;;28.83;;
4738;SDS011;2383;48.632;10.156;2022-12-18T21:25:08;70.73;;;28.90;;
4738;SDS011;2383;48.632;10.156;2022-12-18T21:29:11;66.73;;;27.97;;
4738;SDS011;2383;48.632;10.156;2022-12-18T21:33:15;98.40;;;37.47;;
4738;SDS011;2383;48.632;10.156;2022-12-18T21:37:17;79.70;;;28.53;;
4738;SDS011;2383;48.632;10.156;2022-12-18T21:41:19;66.17;;;27.73;;
4738;SDS011;2383;48.632;10.156;2022-12-18T21:45:42;67.97;;;26.73;;
4738;SDS011;2383;48.632;10.156;2022-12-18T21:49:44;71.33;;;28.20;;
4738;SDS011;2383;48.632;10.156;2022-12-18T21:53:46;67.80;;;27.63;;
4738;SDS011;2383;48.632;10.156;2022-12-18T21:57:50;75.47;;;29.00;;
4738;SDS011;2383;48.632;10.156;2022-12-18T22:01:55;62.83;;;26.13;;
4738;SDS011;2383;48.632;10.156;2022-12-18T22:05:58;71.13;;;29.23;;
4738;SDS011;2383;48.632;10.156;2022-12-18T22:10:09;75.60;;;29.47;;
4738;SDS011;2383;48.632;10.156;2022-12-18T22:14:11;75.37;;;30.63;;
4738;SDS011;2383;48.632;10.156;2022-12-18T22:18:14;70.57;;;28.20;;
4738;SDS011;2383;48.632;10.156;2022-12-18T22:22:16;68.93;;;28.83;;
4738;SDS011;2383;48.632;10.156;2022-12-18T22:26:18;68.00;;;28.47;;
4738;SDS011;2383;48.632;10.156;2022-12-18T22:30:21;79.43;;;29.67;;
4738;SDS011;2383;48.632;10.156;2022-12-18T22:34:23;76.73;;;29.30;;
4738;SDS011;2383;48.632;10.156;2022-12-18T22:38:24;78.83;;;29.40;;
4738;SDS011;2383;48.632;10.156;2022-12-18T22:42:26;75.77;;;28.37;;
4738;SDS011;2383;48.632;10.156;2022-12-18T22:46:29;77.87;;;29.37;;
4738;SDS011;2383;48.632;10.156;2022-12-18T22:50:33;83.23;;;29.57;;
4738;SDS011;2383;48.632;10.156;2022-12-18T22:54:35;79.07;;;29.20;;
4738;SDS011;2383;48.632;10.156;2022-12-18T22:58:37;78.97;;;29.10;;
4738;SDS011;2383;48.632;10.156;2022-12-18T23:02:39;95.40;;;33.20;;
4738;SDS011;2383;48.632;10.156;2022-12-18T23:06:41;80.00;;;29.60;;
4738;SDS011;2383;48.632;10.156;2022-12-18T23:10:44;78.90;;;29.73;;
4738;SDS011;2383;48.632;10.156;2022-12-18T23:14:46;81.80;;;30.77;;
4738;SDS011;2383;48.632;10.156;2022-12-18T23:18:52;85.03;;;31.37;;
4738;SDS011;2383;48.632;10.156;2022-12-18T23:22:55;86.73;;;31.90;;
4738;SDS011;2383;48.632;10.156;2022-12-18T23:26:56;83.03;;;30.10;;
4738;SDS011;2383;48.632;10.156;2022-12-18T23:31:18;89.70;;;30.63;;
4738;SDS011;2383;48.632;10.156;2022-12-18T23:35:21;72.97;;;28.47;;
4738;SDS011;2383;48.632;10.156;2022-12-18T23:39:23;88.33;;;30.90;;
4738;SDS011;2383;48.632;10.156;2022-12-18T23:43:30;90.27;;;31.97;;
4738;SDS011;2383;48.632;10.156;2022-12-18T23:47:32;95.80;;;35.17;;
4738;SDS011;2383;48.632;10.156;2022-12-18T23:51:33;91.30;;;32.70;;
4738;SDS011;2383;48.632;10.156;2022-12-18T23:55:41;86.00;;;33.23;;
4738;SDS011;2383;48.632;10.156;2022-12-18T23:59:44;103.23;;;33.73;;
